Time;durP1;ratioP1;P1;durP2;ratioP2;P2;SDS_P1;SDS_P2;PMS_P1;PMS_P2;Temp;Humidity;BMP_temperature;BMP_pressure;BME280_temperature;BME280_humidity;BME280_pressure;Samples;Min_cycle;Max_cycle;Signal;HPM_P1;HPM_P2
2023/01/14 00:00:39;;;;;;;9.10;8.80;;;6.30;99.90;;;;;;6114755;23;20391;-84
2023/01/14 00:10:42;;;;;;;9.20;8.90;;;6.30;99.90;;;;;;6151299;22;20202;-84
2023/01/14 00:27:00;;;;;;;9.10;8.80;;;6.20;99.90;;;;;;6144370;23;20284;-83
2023/01/14 00:29:58;;;;;;;;;;;;;;;;;;;;;
2023/01/14 00:32:58;;;;;;;9.20;8.90;;;6.30;99.90;;;;;;6249371;23;20195;-84
2023/01/14 00:36:08;;;;;;;9.30;9.00;;;6.30;99.90;;;;;;6216682;23;20211;-84
2023/01/14 00:39:10;;;;;;;9.33;9.03;;;6.30;99.90;;;;;;6230536;23;20199;-84
2023/01/14 00:41:41;;;;;;;9.20;8.90;;;6.30;99.90;;;;;;6224776;22;20217;-86
2023/01/14 00:46:53;;;;;;;9.20;8.90;;;6.30;99.90;;;;;;6226309;23;20202;-85
2023/01/14 00:49:23;;;;;;;9.50;9.20;;;6.30;99.90;;;;;;6240234;22;20179;-87
2023/01/14 00:51:53;;;;;;;9.47;9.17;;;6.30;99.90;;;;;;6251672;22;20182;-87
2023/01/14 00:54:22;;;;;;;9.30;9.00;;;6.30;99.90;;;;;;6242949;22;20199;-86
2023/01/14 00:56:52;;;;;;;9.50;9.20;;;6.30;99.90;;;;;;6229432;23;20198;-85
2023/01/14 00:59:29;;;;;;;9.40;9.10;;;6.30;99.90;;;;;;6227557;23;20198;-86
2023/01/14 01:01:58;;;;;;;9.30;9.00;;;6.30;99.90;;;;;;6225810;23;20195;-86
2023/01/14 01:04:28;;;;;;;9.20;8.90;;;6.30;99.90;;;;;;6225198;23;20191;-85
2023/01/14 01:06:57;;;;;;;9.30;9.00;;;6.30;99.90;;;;;;6225408;23;20234;-86
2023/01/14 01:12:38;;;;;;;9.30;9.00;;;6.30;99.90;;;;;;6225261;23;20265;-85
2023/01/14 01:15:28;;;;;;;9.10;8.80;;;6.30;99.90;;;;;;6226037;23;20190;-85
2023/01/14 01:18:09;;;;;;;9.10;8.80;;;6.30;99.90;;;;;;6230894;23;20183;-85
2023/01/14 01:20:39;;;;;;;9.10;8.80;;;6.30;99.90;;;;;;6235230;22;20294;-85
2023/01/14 01:23:32;;;;;;;9.30;9.00;;;6.30;99.90;;;;;;6228050;23;20221;-87
2023/01/14 01:26:05;;;;;;;9.20;8.90;;;6.30;99.90;;;;;;6228266;23;20202;-88
2023/01/14 01:28:44;;;;;;;9.13;8.83;;;6.40;99.90;;;;;;6226924;23;20209;-86
2023/01/14 01:34:13;;;;;;;9.20;8.90;;;6.40;99.90;;;;;;6226518;23;20195;-88
2023/01/14 01:36:52;;;;;;;9.23;8.93;;;6.40;99.90;;;;;;6226211;23;20222;-88
2023/01/14 01:39:27;;;;;;;9.30;9.00;;;6.40;99.90;;;;;;6226135;23;20253;-87
2023/01/14 01:48:43;;;;;;;9.40;9.10;;;6.40;99.90;;;;;;6106350;23;20198;-87
2023/01/14 01:51:24;;;;;;;9.30;9.00;;;6.40;99.90;;;;;;6106636;23;20198;-87
2023/01/14 01:53:59;;;;;;;9.20;8.90;;;6.40;99.90;;;;;;6200852;23;20203;-88
2023/01/14 01:56:33;;;;;;;9.00;8.70;;;6.40;99.90;;;;;;6229982;23;20217;-88
2023/01/14 01:59:11;;;;;;;9.50;9.20;;;6.40;99.90;;;;;;6227377;23;20218;-87
2023/01/14 02:01:45;;;;;;;9.50;9.20;;;6.50;99.90;;;;;;6226720;22;20206;-88
2023/01/14 02:04:52;;;;;;;9.17;8.87;;;6.50;99.90;;;;;;6225935;23;20207;-89
2023/01/14 02:07:22;;;;;;;9.23;8.93;;;6.50;99.90;;;;;;6225687;23;20209;-88
2023/01/14 02:10:00;;;;;;;9.30;9.00;;;6.50;99.90;;;;;;6227186;22;20197;-88
2023/01/14 02:13:03;;;;;;;9.23;8.93;;;6.50;99.90;;;;;;6225790;23;20194;-87
2023/01/14 02:15:49;;;;;;;9.37;9.07;;;6.50;99.90;;;;;;6225724;23;20265;-87
2023/01/14 02:18:36;;;;;;;9.30;9.00;;;6.50;99.90;;;;;;6226284;23;20277;-88
2023/01/14 02:21:44;;;;;;;9.47;9.17;;;6.50;99.90;;;;;;6242965;22;20254;-88
2023/01/14 02:24:55;;;;;;;9.47;9.17;;;6.40;99.90;;;;;;6251468;22;20186;-88
2023/01/14 02:27:43;;;;;;;9.20;8.90;;;6.40;99.90;;;;;;6249334;22;20206;-87
2023/01/14 02:31:03;;;;;;;9.23;8.93;;;6.30;99.90;;;;;;6227096;22;20253;-87
2023/01/14 02:33:45;;;;;;;9.23;8.93;;;6.30;99.90;;;;;;6224018;23;20198;-87
2023/01/14 02:36:29;;;;;;;9.40;9.10;;;6.20;99.90;;;;;;6225233;23;20289;-87
2023/01/14 02:39:09;;;;;;;9.17;8.87;;;6.10;99.90;;;;;;6225611;23;20199;-87
2023/01/14 02:44:37;;;;;;;9.20;8.90;;;6.10;99.90;;;;;;6225813;23;20183;-87
2023/01/14 02:47:13;;;;;;;9.30;9.00;;;6.00;99.90;;;;;;6225670;23;20203;-88
2023/01/14 02:50:17;;;;;;;9.30;9.00;;;6.10;99.90;;;;;;6225579;22;20191;-86
2023/01/14 02:52:47;;;;;;;9.20;8.90;;;6.10;99.90;;;;;;6225776;23;20195;-88
2023/01/14 02:55:36;;;;;;;8.97;8.77;;;6.10;99.90;;;;;;6226139;23;20245;-87
2023/01/14 02:58:43;;;;;;;9.30;9.00;;;6.10;99.90;;;;;;6225898;23;20285;-87
2023/01/14 03:01:33;;;;;;;9.30;9.00;;;6.10;99.90;;;;;;6224307;22;20387;-87
2023/01/14 03:04:38;;;;;;;9.23;8.93;;;6.20;99.90;;;;;;6224769;23;20190;-87
2023/01/14 03:07:19;;;;;;;9.20;8.90;;;6.20;99.90;;;;;;6226035;23;20320;-87
2023/01/14 03:10:04;;;;;;;8.73;8.53;;;6.20;99.90;;;;;;6226220;22;20190;-87
2023/01/14 03:12:43;;;;;;;9.17;8.87;;;6.20;99.90;;;;;;6226830;23;20202;-86
2023/01/14 03:15:31;;;;;;;8.70;8.50;;;6.20;99.90;;;;;;6250648;22;20209;-87
2023/01/14 03:18:09;;;;;;;8.83;8.63;;;6.30;99.90;;;;;;6244001;22;20222;-87
2023/01/14 03:20:47;;;;;;;9.07;8.80;;;6.30;99.90;;;;;;6228072;22;20199;-88
2023/01/14 03:23:33;;;;;;;9.17;8.87;;;6.30;99.90;;;;;;6228973;23;20239;-87
2023/01/14 03:26:29;;;;;;;9.30;9.00;;;6.30;99.90;;;;;;6238522;22;20207;-89
2023/01/14 03:29:07;;;;;;;9.50;9.20;;;6.30;99.90;;;;;;6240693;22;20195;-88
2023/01/14 03:31:45;;;;;;;9.43;9.13;;;6.30;99.90;;;;;;6228162;22;20265;-87
2023/01/14 03:34:44;;;;;;;9.37;9.07;;;6.30;99.90;;;;;;6227412;23;20205;-86
2023/01/14 03:37:37;;;;;;;9.37;9.07;;;6.30;99.90;;;;;;6227974;23;20234;-88
2023/01/14 03:44:03;;;;;;;9.50;9.20;;;6.30;99.90;;;;;;6228816;23;20940;-89
2023/01/14 03:46:34;;;;;;;9.40;9.10;;;6.30;99.90;;;;;;6229441;23;20203;-87
2023/01/14 03:49:03;;;;;;;9.40;9.10;;;6.30;99.90;;;;;;6230536;23;20218;-86
2023/01/14 03:51:40;;;;;;;9.30;9.00;;;6.30;99.90;;;;;;6227788;22;20209;-87
2023/01/14 03:54:22;;;;;;;9.40;9.10;;;6.30;99.90;;;;;;6226015;23;20198;-87
2023/01/14 03:59:53;;;;;;;9.40;9.10;;;6.30;99.90;;;;;;6226026;22;20195;-87
2023/01/14 04:02:22;;;;;;;9.37;9.07;;;6.30;99.90;;;;;;6226549;23;20186;-88
2023/01/14 04:10:25;;;;;;;9.20;8.90;;;6.30;99.90;;;;;;6226812;22;20241;-87
2023/01/14 04:18:29;;;;;;;9.30;9.00;;;6.30;99.90;;;;;;6234492;23;20210;-86
2023/01/14 04:20:58;;;;;;;9.30;9.00;;;6.30;99.90;;;;;;6251500;22;20187;-89
2023/01/14 04:23:28;;;;;;;9.50;9.20;;;6.30;99.90;;;;;;6252023;22;20201;-87
2023/01/14 04:25:59;;;;;;;9.40;9.10;;;6.30;99.90;;;;;;6247589;22;20199;-88
2023/01/14 04:28:30;;;;;;;9.50;9.20;;;6.20;99.90;;;;;;6230401;23;20209;-87
2023/01/14 04:31:05;;;;;;;9.30;9.00;;;6.20;99.90;;;;;;6229042;22;20199;-88
2023/01/14 04:33:36;;;;;;;9.37;9.07;;;6.20;99.90;;;;;;6230234;23;20222;-87
2023/01/14 04:36:04;;;;;;;9.50;9.20;;;6.10;99.90;;;;;;6226771;23;20206;-87
2023/01/14 04:38:35;;;;;;;9.47;9.17;;;6.10;99.90;;;;;;6227039;23;20276;-87
2023/01/14 04:41:03;;;;;;;9.33;9.03;;;6.10;99.90;;;;;;6225670;22;20207;-87
2023/01/14 04:43:35;;;;;;;9.30;9.00;;;6.10;99.90;;;;;;6226534;23;20266;-87
2023/01/14 04:46:06;;;;;;;9.30;9.00;;;6.00;99.90;;;;;;6225642;23;20217;-88
2023/01/14 04:48:33;;;;;;;9.40;9.10;;;6.10;99.90;;;;;;6225864;23;20206;-88
2023/01/14 04:51:05;;;;;;;9.50;9.20;;;6.00;99.90;;;;;;6225482;22;20195;-88
2023/01/14 04:53:40;;;;;;;9.60;9.30;;;6.10;99.90;;;;;;6226886;23;20194;-89
2023/01/14 04:56:09;;;;;;;9.30;9.00;;;6.00;99.90;;;;;;6226864;23;20198;-88
2023/01/14 05:01:26;;;;;;;9.47;9.17;;;6.00;99.90;;;;;;6226017;22;20285;-88
2023/01/14 05:03:58;;;;;;;9.70;9.40;;;5.90;99.90;;;;;;6232497;23;20202;-87
2023/01/14 05:06:26;;;;;;;9.47;9.17;;;5.90;99.90;;;;;;6249172;22;20199;-87
2023/01/14 05:08:55;;;;;;;9.50;9.20;;;5.90;99.90;;;;;;6249418;23;20175;-88
2023/01/14 05:11:25;;;;;;;9.17;8.87;;;5.90;99.90;;;;;;6235217;22;20288;-88
2023/01/14 05:13:58;;;;;;;9.50;9.20;;;5.90;99.90;;;;;;6226830;23;20250;-88
2023/01/14 05:16:34;;;;;;;9.40;9.10;;;5.90;99.90;;;;;;6225904;23;20210;-87
2023/01/14 05:19:11;;;;;;;9.40;9.10;;;5.90;99.90;;;;;;6225958;23;20202;-87
2023/01/14 05:22:09;;;;;;;;;;;;;;;;;;;;;
2023/01/14 05:28:21;;;;;;;9.23;8.93;;;5.70;99.90;;;;;;6200058;23;20218;-87
2023/01/14 05:33:41;;;;;;;9.20;8.90;;;5.60;99.90;;;;;;6225665;23;20195;-88
2023/01/14 05:38:57;;;;;;;9.30;9.00;;;5.50;99.90;;;;;;6239713;22;20387;-88
2023/01/14 05:41:26;;;;;;;9.10;8.80;;;5.40;99.90;;;;;;6244290;22;20205;-87
2023/01/14 05:47:07;;;;;;;9.20;8.90;;;5.40;99.90;;;;;;6224036;23;20203;-88
2023/01/14 05:49:35;;;;;;;9.30;9.00;;;5.30;99.90;;;;;;6224387;22;20556;-87
2023/01/14 05:52:02;;;;;;;9.27;8.97;;;5.20;99.90;;;;;;6223575;23;20207;-84
2023/01/14 05:54:35;;;;;;;9.23;8.93;;;5.10;99.90;;;;;;6222900;23;20254;-87
2023/01/14 05:57:03;;;;;;;9.10;8.80;;;5.10;99.90;;;;;;6223010;23;20318;-86
2023/01/14 06:09:18;;;;;;;9.33;9.03;;;4.80;99.90;;;;;;5989270;23;20239;-87
2023/01/14 06:15:03;;;;;;;9.40;9.10;;;4.70;99.90;;;;;;6227206;22;20203;-86
2023/01/14 06:18:38;;;;;;;9.50;9.20;;;4.60;99.90;;;;;;6227645;23;20218;-86
2023/01/14 06:21:17;;;;;;;9.40;9.10;;;4.50;99.90;;;;;;6154998;23;20229;-86
2023/01/14 06:24:08;;;;;;;9.40;9.10;;;4.50;99.90;;;;;;6225830;23;20191;-87
2023/01/14 06:26:52;;;;;;;9.40;9.10;;;4.40;99.90;;;;;;6225600;23;20202;-89
2023/01/14 06:32:06;;;;;;;9.20;8.90;;;4.40;99.90;;;;;;6225983;23;20199;-87
2023/01/14 06:34:41;;;;;;;9.17;8.87;;;4.30;99.90;;;;;;6241838;22;20218;-87
2023/01/14 06:42:36;;;;;;;9.20;8.90;;;4.40;99.90;;;;;;6199351;23;20284;-89
2023/01/14 06:45:10;;;;;;;9.03;8.73;;;4.40;99.90;;;;;;6216658;23;20196;-88
2023/01/14 06:51:25;;;;;;;9.50;9.20;;;4.40;99.90;;;;;;6201305;23;20274;-89
2023/01/14 06:54:01;;;;;;;9.37;9.07;;;4.40;99.90;;;;;;6201990;23;20195;-88
2023/01/14 06:58:11;;;;;;;9.50;9.20;;;4.40;99.90;;;;;;6200981;23;20223;-90
2023/01/14 07:04:05;;;;;;;9.30;9.00;;;4.20;99.90;;;;;;6201731;23;20266;-90
2023/01/14 08:12:45;;;;;;;9.63;9.33;;;4.80;99.90;;;;;;6203503;23;20183;-87
2023/01/14 08:15:14;;;;;;;9.40;9.10;;;4.80;99.90;;;;;;6198648;23;20666;-88
2023/01/14 08:18:04;;;;;;;9.60;9.30;;;4.80;99.90;;;;;;6198540;23;20247;-89
2023/01/14 09:28:40;;;;;;;9.90;9.60;;;6.30;99.90;;;;;;5897011;23;20225;-87
2023/01/14 09:31:15;;;;;;;9.77;9.47;;;6.30;99.90;;;;;;6041316;23;20234;-86
2023/01/14 09:37:07;;;;;;;9.60;9.30;;;6.40;99.90;;;;;;6199406;23;20223;-90
2023/01/14 09:42:33;;;;;;;9.60;9.30;;;6.40;99.90;;;;;;6202498;23;20282;-85
2023/01/14 09:45:13;;;;;;;9.50;9.20;;;6.40;99.90;;;;;;6201726;23;20203;-86
2023/01/14 09:54:02;;;;;;;9.23;8.93;;;6.60;99.90;;;;;;6202898;23;20255;-85
2023/01/14 09:56:46;;;;;;;9.27;8.97;;;6.70;99.90;;;;;;6201449;23;20192;-86
2023/01/14 09:59:25;;;;;;;9.40;9.10;;;6.70;99.90;;;;;;6203216;23;20283;-85
2023/01/14 10:02:02;;;;;;;9.40;9.10;;;6.70;99.90;;;;;;6201100;23;20207;-83
2023/01/14 10:05:09;;;;;;;9.40;9.10;;;6.80;99.90;;;;;;6201878;23;20250;-83
2023/01/14 10:08:32;;;;;;;9.60;9.30;;;6.80;99.90;;;;;;6202688;23;20213;-84
2023/01/14 10:11:07;;;;;;;9.47;9.17;;;6.90;99.90;;;;;;6080411;23;20249;-83
2023/01/14 10:13:55;;;;;;;9.60;9.30;;;7.00;99.90;;;;;;6105374;23;20251;-85
2023/01/14 10:16:43;;;;;;;9.50;9.20;;;7.10;99.90;;;;;;6199736;23;20242;-84
2023/01/14 10:26:00;;;;;;;10.03;9.73;;;7.10;99.90;;;;;;6200410;23;20208;-86
2023/01/14 10:29:41;;;;;;;9.97;9.67;;;7.10;99.90;;;;;;6200627;23;20195;-86
2023/01/14 10:36:41;;;;;;;9.90;9.60;;;7.10;99.90;;;;;;6165258;23;20923;-85
2023/01/14 10:39:29;;;;;;;9.90;9.60;;;7.10;99.90;;;;;;6141542;23;20184;-86
2023/01/14 10:42:00;;;;;;;9.70;9.40;;;7.10;99.90;;;;;;6198746;23;20231;-85
2023/01/14 10:45:57;;;;;;;9.70;9.40;;;7.10;99.90;;;;;;6198965;23;20239;-86
2023/01/14 12:45:54;;;;;;;9.90;9.60;;;7.90;99.90;;;;;;6242717;22;20341;-83
2023/01/14 12:48:25;;;;;;;9.77;9.47;;;8.00;99.90;;;;;;6249500;23;20199;-84
2023/01/14 12:51:03;;;;;;;9.77;9.47;;;8.10;99.90;;;;;;6250544;22;20179;-83
2023/01/14 12:53:39;;;;;;;10.03;9.73;;;8.10;99.90;;;;;;6219983;23;20195;-84
2023/01/14 12:56:08;;;;;;;9.80;9.50;;;8.10;99.90;;;;;;6203828;23;20254;-83
2023/01/14 12:58:41;;;;;;;9.90;9.60;;;8.10;99.90;;;;;;6220233;23;20192;-84
2023/01/14 13:01:18;;;;;;;9.90;9.60;;;8.10;99.90;;;;;;6209061;23;20215;-85
2023/01/14 13:03:55;;;;;;;9.80;9.50;;;8.20;99.90;;;;;;6197857;23;20247;-85
2023/01/14 13:06:32;;;;;;;9.90;9.60;;;8.20;99.90;;;;;;6197348;23;20195;-86
2023/01/14 13:09:03;;;;;;;9.90;9.60;;;8.20;99.90;;;;;;6197101;23;20227;-86
2023/01/14 13:14:36;;;;;;;9.73;9.43;;;8.30;99.90;;;;;;6200146;23;20248;-86
2023/01/14 13:17:23;;;;;;;9.73;9.43;;;8.30;99.90;;;;;;6199338;23;20184;-86
2023/01/14 13:19:53;;;;;;;9.50;9.20;;;8.40;99.90;;;;;;6196840;23;20196;-86
2023/01/14 13:22:50;;;;;;;9.77;9.47;;;8.40;99.90;;;;;;6197817;23;20255;-86
2023/01/14 13:25:35;;;;;;;9.53;9.23;;;8.50;99.90;;;;;;6196554;23;20234;-87
2023/01/14 13:28:31;;;;;;;9.87;9.57;;;8.50;99.90;;;;;;6200525;23;20199;-86
2023/01/14 13:31:38;;;;;;;9.77;9.47;;;8.50;99.90;;;;;;6199149;23;20192;-85
2023/01/14 13:35:03;;;;;;;9.80;9.50;;;8.50;99.90;;;;;;6198963;23;20281;-85
2023/01/14 13:37:58;;;;;;;9.70;9.40;;;8.40;99.90;;;;;;6196093;23;20219;-88
2023/01/14 13:40:36;;;;;;;9.60;9.30;;;8.40;99.90;;;;;;6187397;23;20250;-86
2023/01/14 13:43:12;;;;;;;9.77;9.47;;;8.40;99.90;;;;;;6202241;23;20203;-87
2023/01/14 13:45:41;;;;;;;9.80;9.50;;;8.50;99.90;;;;;;6200466;23;20200;-88
2023/01/14 13:48:22;;;;;;;9.60;9.30;;;8.40;99.90;;;;;;6199140;23;20195;-88
2023/01/14 13:50:51;;;;;;;9.60;9.30;;;8.50;99.90;;;;;;6197538;23;20199;-87
2023/01/14 13:53:29;;;;;;;10.00;9.70;;;8.50;99.90;;;;;;6196217;23;20210;-87
2023/01/14 13:56:00;;;;;;;9.73;9.43;;;8.40;99.90;;;;;;6195669;23;20271;-85
2023/01/14 13:58:48;;;;;;;9.90;9.60;;;8.50;99.90;;;;;;6196232;23;20246;-87
2023/01/14 14:01:27;;;;;;;10.03;9.73;;;8.50;99.90;;;;;;6194467;23;20676;-85
2023/01/14 14:04:06;;;;;;;9.97;9.67;;;8.50;99.90;;;;;;6195750;23;20195;-87
2023/01/14 14:06:50;;;;;;;9.77;9.47;;;8.40;99.90;;;;;;6194702;23;20195;-83
2023/01/14 14:09:34;;;;;;;9.83;9.53;;;8.50;99.90;;;;;;6195991;23;20207;-82
2023/01/14 14:15:25;;;;;;;9.90;9.60;;;8.40;99.90;;;;;;6133454;23;20204;-85
2023/01/14 14:17:58;;;;;;;9.90;9.60;;;8.40;99.90;;;;;;6201700;23;20199;-86
2023/01/14 14:20:45;;;;;;;9.90;9.60;;;8.40;99.90;;;;;;6217526;23;20171;-85
2023/01/14 14:23:25;;;;;;;10.07;9.77;;;8.30;99.90;;;;;;6206241;23;20228;-83
2023/01/14 14:25:53;;;;;;;9.97;9.67;;;8.30;99.90;;;;;;6199660;23;20266;-85
2023/01/14 14:28:28;;;;;;;9.90;9.60;;;8.40;99.90;;;;;;6196366;23;20207;-83
2023/01/14 14:31:01;;;;;;;9.83;9.53;;;8.30;99.90;;;;;;6209902;23;20219;-83
2023/01/14 14:33:41;;;;;;;9.80;9.50;;;8.40;99.90;;;;;;6195896;23;20251;-83
2023/01/14 14:36:20;;;;;;;9.80;9.50;;;8.40;99.90;;;;;;6200087;23;20192;-85
2023/01/14 14:38:52;;;;;;;9.60;9.30;;;8.30;99.90;;;;;;6196211;23;20196;-86
2023/01/14 14:41:25;;;;;;;9.90;9.60;;;8.40;99.90;;;;;;6214769;23;20254;-81
2023/01/14 14:43:59;;;;;;;9.87;9.57;;;8.30;99.90;;;;;;6220473;23;20183;-82
2023/01/14 14:46:27;;;;;;;9.67;9.37;;;8.30;99.90;;;;;;6217138;23;20195;-82
2023/01/14 14:48:55;;;;;;;9.80;9.50;;;8.30;99.90;;;;;;6209575;23;20214;-82
2023/01/14 14:51:30;;;;;;;9.80;9.50;;;8.30;99.90;;;;;;6196792;23;20199;-83
2023/01/14 14:54:00;;;;;;;9.40;9.10;;;8.30;99.90;;;;;;6194628;23;20270;-83
2023/01/14 14:56:32;;;;;;;9.43;9.13;;;8.30;99.90;;;;;;6194699;23;20196;-83
2023/01/14 14:59:06;;;;;;;9.70;9.40;;;8.30;99.90;;;;;;6194596;23;21023;-83
2023/01/14 15:01:39;;;;;;;9.50;9.20;;;8.30;99.90;;;;;;6195425;23;20231;-81
2023/01/14 15:04:09;;;;;;;9.50;9.20;;;8.30;99.90;;;;;;6197043;23;20194;-83
2023/01/14 15:06:38;;;;;;;9.60;9.30;;;8.30;99.90;;;;;;6196447;23;20223;-83
2023/01/14 15:09:09;;;;;;;9.50;9.20;;;8.40;99.90;;;;;;6197202;23;20298;-83
2023/01/14 15:11:49;;;;;;;9.53;9.23;;;8.40;99.90;;;;;;6201401;23;20282;-85
2023/01/14 15:14:30;;;;;;;9.70;9.40;;;8.40;99.90;;;;;;6199107;23;20223;-83
2023/01/14 15:17:01;;;;;;;9.60;9.30;;;8.40;99.90;;;;;;6215335;23;20187;-83
2023/01/14 15:19:34;;;;;;;9.60;9.30;;;8.40;99.90;;;;;;6201552;23;20220;-84
2023/01/14 15:22:12;;;;;;;9.80;9.50;;;8.40;99.90;;;;;;6200654;23;20393;-86
2023/01/14 15:24:41;;;;;;;9.30;9.00;;;8.40;99.90;;;;;;6197656;23;20198;-86
2023/01/14 15:27:18;;;;;;;9.40;9.10;;;8.40;99.90;;;;;;6199225;23;20192;-85
2023/01/14 15:30:00;;;;;;;9.50;9.20;;;8.30;99.90;;;;;;6199312;23;20275;-87
2023/01/14 15:35:27;;;;;;;9.53;9.23;;;8.20;99.90;;;;;;6195155;23;20210;-90
2023/01/14 15:38:01;;;;;;;9.67;9.37;;;8.20;99.90;;;;;;6198986;23;20205;-86
2023/01/14 15:40:41;;;;;;;9.80;9.50;;;8.30;99.90;;;;;;6197965;23;20195;-86
2023/01/14 15:43:19;;;;;;;9.73;9.43;;;8.20;99.90;;;;;;6198669;23;20254;-84
2023/01/14 15:45:48;;;;;;;9.40;9.10;;;8.20;99.90;;;;;;6209548;23;20192;-83
2023/01/14 15:48:18;;;;;;;9.50;9.20;;;8.20;99.90;;;;;;6219212;23;20187;-83
2023/01/14 15:50:57;;;;;;;9.47;9.17;;;8.20;99.90;;;;;;6210698;23;20195;-85
2023/01/14 15:53:33;;;;;;;9.37;9.07;;;8.10;99.90;;;;;;6202205;23;20258;-84
2023/01/14 15:56:11;;;;;;;9.10;8.80;;;8.10;99.90;;;;;;6200506;23;20259;-84
2023/01/14 15:58:43;;;;;;;9.30;9.00;;;8.10;99.90;;;;;;6200835;23;20195;-85
2023/01/14 16:01:22;;;;;;;9.57;9.27;;;8.20;99.90;;;;;;6201506;23;20215;-84
2023/01/14 16:03:51;;;;;;;9.50;9.20;;;8.20;99.90;;;;;;6202555;23;20274;-83
2023/01/14 16:06:36;;;;;;;9.53;9.23;;;8.20;99.90;;;;;;6200966;23;20271;-82
2023/01/14 16:09:25;;;;;;;9.50;9.20;;;8.20;99.90;;;;;;6200132;23;20223;-86
2023/01/14 16:11:55;;;;;;;9.00;8.70;;;8.20;99.90;;;;;;6198357;23;20199;-84
2023/01/14 16:14:34;;;;;;;9.33;9.03;;;8.20;99.90;;;;;;6199565;23;20245;-84
2023/01/14 16:17:02;;;;;;;9.20;8.90;;;8.10;99.90;;;;;;6199676;23;20188;-85
2023/01/14 16:19:29;;;;;;;9.47;9.17;;;8.10;99.90;;;;;;6203051;23;20191;-84
2023/01/14 16:21:58;;;;;;;9.07;8.77;;;8.10;99.90;;;;;;6219751;23;20184;-85
2023/01/14 16:24:36;;;;;;;9.40;9.10;;;8.10;99.90;;;;;;6219908;23;20184;-84
2023/01/14 16:30:02;;;;;;;9.10;8.80;;;7.90;99.90;;;;;;6199072;23;20203;-86
2023/01/14 16:32:31;;;;;;;9.10;8.80;;;7.80;99.90;;;;;;6200059;23;20215;-84
2023/01/14 16:35:02;;;;;;;9.10;8.80;;;7.70;99.90;;;;;;6199471;23;20196;-84
2023/01/14 16:37:30;;;;;;;9.00;8.70;;;7.70;99.90;;;;;;6205449;23;20230;-85
2023/01/14 16:40:09;;;;;;;9.13;8.83;;;7.60;99.90;;;;;;6199739;23;20223;-83
2023/01/14 16:42:42;;;;;;;8.80;8.60;;;7.60;99.90;;;;;;6219284;23;20218;-83
2023/01/14 16:48:03;;;;;;;8.67;8.47;;;7.50;99.90;;;;;;6219989;23;20176;-82
2023/01/14 16:50:33;;;;;;;8.43;8.23;;;7.50;99.90;;;;;;6206747;23;20211;-82
2023/01/14 16:53:02;;;;;;;8.60;8.40;;;7.50;99.90;;;;;;6196920;23;20200;-82
2023/01/14 16:55:41;;;;;;;8.40;8.20;;;7.50;99.90;;;;;;6197003;23;20313;-85
2023/01/14 16:58:12;;;;;;;8.60;8.40;;;7.40;99.90;;;;;;6197570;23;20239;-84
2023/01/14 17:00:40;;;;;;;8.80;8.60;;;7.40;99.90;;;;;;6198834;23;20200;-82
2023/01/14 17:03:09;;;;;;;8.70;8.50;;;7.30;99.90;;;;;;6198577;23;20227;-83
2023/01/14 17:05:37;;;;;;;8.50;8.30;;;7.30;99.90;;;;;;6198438;23;20202;-83
2023/01/14 17:08:07;;;;;;;8.63;8.43;;;7.20;99.90;;;;;;6198213;23;20220;-85
2023/01/14 17:13:23;;;;;;;8.70;8.50;;;7.10;99.90;;;;;;6204747;23;20187;-84
2023/01/14 17:15:53;;;;;;;8.50;8.30;;;7.10;99.90;;;;;;6199167;23;20195;-83
2023/01/14 17:18:22;;;;;;;8.53;8.33;;;7.10;99.90;;;;;;6199720;23;20196;-84
2023/01/14 17:20:54;;;;;;;8.80;8.60;;;7.10;99.90;;;;;;6208175;23;20192;-82
2023/01/14 17:23:22;;;;;;;8.73;8.53;;;7.10;99.90;;;;;;6218818;23;20210;-80
2023/01/14 17:25:56;;;;;;;9.07;8.77;;;7.00;99.90;;;;;;6219412;23;20175;-82
2023/01/14 17:28:31;;;;;;;8.70;8.50;;;7.00;99.90;;;;;;6219229;23;20188;-81
2023/01/14 17:31:00;;;;;;;8.80;8.60;;;7.00;99.90;;;;;;6218966;23;20194;-83
2023/01/14 17:33:30;;;;;;;8.90;8.70;;;6.90;99.90;;;;;;6202930;23;20195;-83
2023/01/14 17:36:00;;;;;;;8.97;8.70;;;6.90;99.90;;;;;;6196963;23;20270;-83
2023/01/14 17:38:30;;;;;;;8.87;8.60;;;6.90;99.90;;;;;;6199955;23;20227;-82
2023/01/14 17:41:01;;;;;;;9.00;8.70;;;6.90;99.90;;;;;;6202098;23;20192;-82
2023/01/14 17:43:29;;;;;;;8.80;8.60;;;6.90;99.90;;;;;;6199771;23;20207;-81
2023/01/14 17:45:57;;;;;;;8.80;8.60;;;6.90;99.90;;;;;;6199512;23;20223;-83
2023/01/14 17:48:26;;;;;;;9.00;8.70;;;6.80;99.90;;;;;;6196853;23;20237;-85
2023/01/14 17:50:56;;;;;;;9.00;8.70;;;6.90;99.90;;;;;;6196060;23;20204;-85
2023/01/14 17:53:25;;;;;;;8.77;8.57;;;6.80;99.90;;;;;;6199637;23;20315;-85
2023/01/14 17:55:55;;;;;;;8.70;8.50;;;6.80;99.90;;;;;;6198925;23;20204;-81
2023/01/14 17:58:36;;;;;;;8.90;8.63;;;6.80;99.90;;;;;;6198880;23;20258;-88
2023/01/14 18:01:13;;;;;;;8.70;8.50;;;6.80;99.90;;;;;;6199185;23;20223;-83
2023/01/14 18:03:50;;;;;;;8.50;8.30;;;6.70;99.90;;;;;;6198702;23;20285;-82
2023/01/14 18:06:19;;;;;;;8.60;8.40;;;6.70;99.90;;;;;;6196319;23;20191;-81
2023/01/14 18:08:48;;;;;;;8.97;8.67;;;6.70;99.90;;;;;;6196894;23;20195;-82
2023/01/14 18:11:15;;;;;;;8.57;8.37;;;6.70;99.90;;;;;;6209482;23;20205;-79
2023/01/14 18:13:48;;;;;;;8.57;8.37;;;6.70;99.90;;;;;;6219277;23;20175;-80
2023/01/14 18:16:17;;;;;;;8.77;8.57;;;6.70;99.90;;;;;;6206339;23;20191;-81
2023/01/14 18:18:45;;;;;;;8.53;8.33;;;6.70;99.90;;;;;;6200358;23;20206;-80
2023/01/14 18:21:15;;;;;;;8.63;8.43;;;6.70;99.90;;;;;;6199948;23;20250;-80
2023/01/14 18:23:45;;;;;;;8.50;8.30;;;6.70;99.90;;;;;;6197919;23;20196;-80
2023/01/14 18:26:19;;;;;;;8.60;8.40;;;6.70;99.90;;;;;;6197213;23;20200;-80
2023/01/14 18:28:54;;;;;;;8.30;8.10;;;6.70;99.90;;;;;;6196224;23;20191;-79
2023/01/14 18:31:22;;;;;;;8.40;8.20;;;6.70;99.90;;;;;;6196275;23;20207;-81
2023/01/14 18:33:50;;;;;;;8.20;8.00;;;6.60;99.90;;;;;;6204934;23;20204;-80
2023/01/14 18:36:22;;;;;;;8.10;7.90;;;6.60;99.90;;;;;;6218563;23;20199;-82
2023/01/14 18:38:50;;;;;;;8.40;8.20;;;6.60;99.90;;;;;;6218858;23;20167;-81
2023/01/14 18:41:20;;;;;;;8.40;8.20;;;6.60;99.90;;;;;;6219168;23;20226;-81
2023/01/14 18:43:49;;;;;;;8.50;8.30;;;6.60;99.90;;;;;;6212679;22;20501;-83
2023/01/14 18:46:22;;;;;;;8.60;8.40;;;6.70;99.90;;;;;;6200647;23;20196;-84
2023/01/14 18:56:29;;;;;;;;;;;;;;;;;;;;;
2023/01/14 18:59:28;;;;;;;8.40;8.20;;;6.70;99.90;;;;;;6007359;23;20266;-89
2023/01/14 19:05:36;;;;;;;8.30;8.10;;;6.70;99.90;;;;;;6214639;22;20261;-83
2023/01/14 19:08:23;;;;;;;8.40;8.20;;;6.70;99.90;;;;;;6108220;23;20233;-85
2023/01/14 19:19:22;;;;;;;8.33;8.13;;;6.60;99.90;;;;;;6231697;23;20198;-84
2023/01/14 19:27:44;;;;;;;;;;;;;;;;;;;;;
2023/01/14 19:53:03;;;;;;;8.70;8.50;;;7.00;99.90;;;;;;6110841;23;20233;-83
2023/01/14 20:11:21;;;;;;;8.70;8.50;;;7.60;99.90;;;;;;5936169;23;20213;-83
2023/01/14 20:14:17;;;;;;;8.87;8.67;;;7.60;99.90;;;;;;6093665;23;20256;-83
2023/01/14 20:58:08;;;;;;;9.10;8.80;;;8.00;99.90;;;;;;6104671;23;20209;-85
2023/01/14 21:00:39;;;;;;;9.03;8.73;;;8.00;99.90;;;;;;6229874;23;20234;-86
2023/01/14 21:04:05;;;;;;;8.73;8.53;;;8.00;99.90;;;;;;6229146;23;20195;-85
2023/01/14 21:06:42;;;;;;;8.90;8.70;;;8.00;99.90;;;;;;6206708;23;20205;-85
2023/01/14 21:09:29;;;;;;;;;;;;;;;;;;;;;
2023/01/14 21:27:49;;;;;;;9.20;8.90;;;8.20;99.90;;;;;;6195493;23;20199;-89
2023/01/14 21:30:53;;;;;;;8.80;8.60;;;8.30;99.90;;;;;;6198117;23;20286;-87
2023/01/14 21:39:15;;;;;;;9.03;8.73;;;8.40;99.90;;;;;;6193379;23;20203;-85
2023/01/14 21:55:31;;;;;;;8.80;8.60;;;8.40;99.90;;;;;;6090973;23;20203;-87
2023/01/14 22:00:55;;;;;;;9.30;9.00;;;8.40;99.90;;;;;;6199052;23;20222;-86
2023/01/14 22:03:34;;;;;;;9.20;8.90;;;8.40;99.90;;;;;;6199374;23;20195;-87
2023/01/14 22:06:21;;;;;;;9.50;9.20;;;8.40;99.90;;;;;;6204494;23;20191;-87
2023/01/14 22:11:45;;;;;;;9.30;9.00;;;8.50;99.90;;;;;;6203689;23;20192;-86
2023/01/14 22:14:25;;;;;;;9.30;9.00;;;8.50;99.90;;;;;;6199569;23;20230;-87
2023/01/14 22:23:10;;;;;;;9.23;8.93;;;8.50;99.90;;;;;;6194480;23;20208;-87
2023/01/14 22:25:41;;;;;;;9.53;9.23;;;8.50;99.90;;;;;;6197595;23;20207;-87
2023/01/14 22:34:55;;;;;;;9.53;9.23;;;8.60;99.90;;;;;;6194826;23;20206;-88
2023/01/14 22:38:00;;;;;;;9.60;9.30;;;8.60;99.90;;;;;;6197298;23;20187;-87
2023/01/14 22:43:21;;;;;;;9.80;9.50;;;8.70;99.90;;;;;;6197332;23;20199;-87
2023/01/14 22:50:08;;;;;;;9.60;9.30;;;8.80;99.90;;;;;;6162027;23;20203;-88
2023/01/14 22:56:34;;;;;;;9.93;9.63;;;8.90;99.90;;;;;;6026080;23;20218;-87
2023/01/14 22:59:12;;;;;;;9.70;9.40;;;9.00;99.90;;;;;;6197443;23;20196;-87
2023/01/14 23:01:42;;;;;;;9.60;9.30;;;9.00;99.90;;;;;;6197930;23;20263;-86
2023/01/14 23:04:12;;;;;;;9.70;9.40;;;9.00;99.90;;;;;;6197049;23;20204;-87
2023/01/14 23:06:43;;;;;;;9.70;9.40;;;9.00;99.90;;;;;;6198142;23;20192;-86
2023/01/14 23:09:12;;;;;;;9.47;9.17;;;9.00;99.90;;;;;;6197276;23;20196;-86
2023/01/14 23:11:42;;;;;;;9.50;9.20;;;9.00;99.90;;;;;;6197300;23;20223;-87
2023/01/14 23:14:21;;;;;;;9.30;9.00;;;9.10;99.90;;;;;;6197483;23;20200;-87
2023/01/14 23:19:44;;;;;;;9.37;9.07;;;9.10;99.90;;;;;;6197899;23;20180;-87
2023/01/14 23:25:07;;;;;;;9.47;9.17;;;9.00;99.90;;;;;;6199077;23;20195;-87
2023/01/14 23:27:48;;;;;;;9.33;9.03;;;9.00;99.90;;;;;;6198723;23;20279;-87